sensor_id;sensor_type;location;lat;lon;timestamp;P1;durP1;ratioP1;P2;durP2;ratioP2
82952;SDS011;74888;40.196;44.560;2024-03-23T00:53:55;4.50;;;1.98;;
82952;SDS011;74888;40.196;44.560;2024-03-23T00:56:31;5.13;;;2.20;;
82952;SDS011;74888;40.196;44.560;2024-03-23T00:58:58;5.25;;;1.98;;
82952;SDS011;74888;40.196;44.560;2024-03-23T01:01:26;6.82;;;2.08;;
82952;SDS011;74888;40.196;44.560;2024-03-23T01:03:51;4.65;;;1.85;;
82952;SDS011;74888;40.196;44.560;2024-03-23T01:06:17;4.93;;;2.17;;
82952;SDS011;74888;40.196;44.560;2024-03-23T01:08:46;4.60;;;2.10;;
82952;SDS011;74888;40.196;44.560;2024-03-23T01:11:11;4.45;;;1.90;;
82952;SDS011;74888;40.196;44.560;2024-03-23T01:13:37;5.22;;;2.00;;
82952;SDS011;74888;40.196;44.560;2024-03-23T01:16:05;4.80;;;1.95;;
82952;SDS011;74888;40.196;44.560;2024-03-23T01:18:30;4.57;;;2.13;;
82952;SDS011;74888;40.196;44.560;2024-03-23T01:20:58;4.88;;;2.10;;
82952;SDS011;74888;40.196;44.560;2024-03-23T01:23:23;4.53;;;1.85;;
82952;SDS011;74888;40.196;44.560;2024-03-23T01:25:52;5.30;;;2.00;;
82952;SDS011;74888;40.196;44.560;2024-03-23T01:28:19;4.80;;;2.20;;
82952;SDS011;74888;40.196;44.560;2024-03-23T01:30:46;5.78;;;2.10;;
82952;SDS011;74888;40.196;44.560;2024-03-23T01:33:12;3.05;;;1.60;;
82952;SDS011;74888;40.196;44.560;2024-03-23T01:35:38;3.80;;;1.55;;
82952;SDS011;74888;40.196;44.560;2024-03-23T01:38:04;4.28;;;1.70;;
82952;SDS011;74888;40.196;44.560;2024-03-23T01:40:32;3.30;;;1.50;;
82952;SDS011;74888;40.196;44.560;2024-03-23T01:42:58;3.72;;;1.60;;
82952;SDS011;74888;40.196;44.560;2024-03-23T01:45:27;5.38;;;2.10;;
82952;SDS011;74888;40.196;44.560;2024-03-23T01:47:53;4.47;;;1.80;;
82952;SDS011;74888;40.196;44.560;2024-03-23T01:50:20;3.90;;;1.80;;
82952;SDS011;74888;40.196;44.560;2024-03-23T01:52:46;4.18;;;1.85;;
82952;SDS011;74888;40.196;44.560;2024-03-23T01:55:13;3.03;;;1.50;;
82952;SDS011;74888;40.196;44.560;2024-03-23T01:57:39;4.28;;;2.03;;
82952;SDS011;74888;40.196;44.560;2024-03-23T02:00:05;3.63;;;1.50;;
82952;SDS011;74888;40.196;44.560;2024-03-23T02:02:32;4.65;;;2.10;;
82952;SDS011;74888;40.196;44.560;2024-03-23T02:04:57;4.50;;;1.85;;
82952;SDS011;74888;40.196;44.560;2024-03-23T02:07:24;5.88;;;1.75;;
82952;SDS011;74888;40.196;44.560;2024-03-23T02:09:55;4.75;;;1.88;;
82952;SDS011;74888;40.196;44.560;2024-03-23T02:12:21;3.70;;;1.88;;
82952;SDS011;74888;40.196;44.560;2024-03-23T02:14:47;3.22;;;1.80;;
82952;SDS011;74888;40.196;44.560;2024-03-23T02:17:13;4.22;;;1.90;;
82952;SDS011;74888;40.196;44.560;2024-03-23T02:19:39;5.07;;;1.90;;
82952;SDS011;74888;40.196;44.560;2024-03-23T02:22:05;4.20;;;1.77;;
82952;SDS011;74888;40.196;44.560;2024-03-23T02:24:31;4.07;;;1.92;;
82952;SDS011;74888;40.196;44.560;2024-03-23T02:26:56;3.72;;;1.70;;
82952;SDS011;74888;40.196;44.560;2024-03-23T02:29:24;4.05;;;1.70;;
82952;SDS011;74888;40.196;44.560;2024-03-23T02:31:50;3.65;;;1.67;;
82952;SDS011;74888;40.196;44.560;2024-03-23T02:34:16;3.55;;;1.60;;
82952;SDS011;74888;40.196;44.560;2024-03-23T02:36:42;3.72;;;1.83;;
82952;SDS011;74888;40.196;44.560;2024-03-23T02:39:07;5.82;;;2.13;;
82952;SDS011;74888;40.196;44.560;2024-03-23T02:41:34;2.88;;;1.45;;
82952;SDS011;74888;40.196;44.560;2024-03-23T02:44:03;5.03;;;1.63;;
82952;SDS011;74888;40.196;44.560;2024-03-23T02:46:28;3.20;;;1.52;;
82952;SDS011;74888;40.196;44.560;2024-03-23T02:48:54;3.85;;;1.67;;
82952;SDS011;74888;40.196;44.560;2024-03-23T02:51:23;3.85;;;1.63;;
82952;SDS011;74888;40.196;44.560;2024-03-23T02:53:49;4.85;;;1.58;;
82952;SDS011;74888;40.196;44.560;2024-03-23T02:56:15;3.53;;;1.90;;
82952;SDS011;74888;40.196;44.560;2024-03-23T02:58:43;4.85;;;2.35;;
82952;SDS011;74888;40.196;44.560;2024-03-23T03:01:09;5.25;;;2.40;;
82952;SDS011;74888;40.196;44.560;2024-03-23T03:03:35;4.53;;;1.90;;
82952;SDS011;74888;40.196;44.560;2024-03-23T03:06:01;6.10;;;2.38;;
82952;SDS011;74888;40.196;44.560;2024-03-23T03:08:32;4.30;;;2.58;;
82952;SDS011;74888;40.196;44.560;2024-03-23T03:10:59;6.28;;;2.60;;
82952;SDS011;74888;40.196;44.560;2024-03-23T03:13:25;4.43;;;2.20;;
82952;SDS011;74888;40.196;44.560;2024-03-23T03:15:50;6.72;;;2.13;;
82952;SDS011;74888;40.196;44.560;2024-03-23T03:18:16;7.03;;;3.17;;
82952;SDS011;74888;40.196;44.560;2024-03-23T03:20:42;6.05;;;3.10;;
82952;SDS011;74888;40.196;44.560;2024-03-23T03:23:09;6.25;;;2.90;;
82952;SDS011;74888;40.196;44.560;2024-03-23T03:25:34;6.90;;;2.78;;
82952;SDS011;74888;40.196;44.560;2024-03-23T03:28:00;12.00;;;5.55;;
82952;SDS011;74888;40.196;44.560;2024-03-23T03:30:26;7.35;;;3.20;;
82952;SDS011;74888;40.196;44.560;2024-03-23T03:32:54;6.25;;;2.97;;
82952;SDS011;74888;40.196;44.560;2024-03-23T03:35:20;5.70;;;3.10;;
82952;SDS011;74888;40.196;44.560;2024-03-23T03:37:46;6.63;;;2.75;;
82952;SDS011;74888;40.196;44.560;2024-03-23T03:40:12;6.32;;;2.70;;
82952;SDS011;74888;40.196;44.560;2024-03-23T03:42:41;8.07;;;2.40;;
82952;SDS011;74888;40.196;44.560;2024-03-23T03:45:07;6.68;;;2.92;;
82952;SDS011;74888;40.196;44.560;2024-03-23T03:47:32;7.47;;;2.42;;
82952;SDS011;74888;40.196;44.560;2024-03-23T03:49:58;5.65;;;2.53;;
82952;SDS011;74888;40.196;44.560;2024-03-23T03:52:24;7.03;;;2.40;;
82952;SDS011;74888;40.196;44.560;2024-03-23T03:54:49;4.95;;;2.25;;
82952;SDS011;74888;40.196;44.560;2024-03-23T03:57:19;7.25;;;2.95;;
82952;SDS011;74888;40.196;44.560;2024-03-23T03:59:51;6.18;;;2.45;;
82952;SDS011;74888;40.196;44.560;2024-03-23T04:02:16;4.93;;;2.30;;
82952;SDS011;74888;40.196;44.560;2024-03-23T04:04:42;5.40;;;2.42;;
82952;SDS011;74888;40.196;44.560;2024-03-23T04:09:38;7.32;;;3.13;;
82952;SDS011;74888;40.196;44.560;2024-03-23T04:12:04;10.88;;;4.78;;
82952;SDS011;74888;40.196;44.560;2024-03-23T04:14:30;9.55;;;5.05;;
82952;SDS011;74888;40.196;44.560;2024-03-23T04:16:56;10.65;;;5.53;;
82952;SDS011;74888;40.196;44.560;2024-03-23T04:19:21;16.10;;;6.93;;
82952;SDS011;74888;40.196;44.560;2024-03-23T04:21:47;17.10;;;6.43;;
82952;SDS011;74888;40.196;44.560;2024-03-23T04:26:44;10.77;;;4.78;;
82952;SDS011;74888;40.196;44.560;2024-03-23T04:29:11;12.93;;;6.07;;
82952;SDS011;74888;40.196;44.560;2024-03-23T04:31:37;12.25;;;5.97;;
82952;SDS011;74888;40.196;44.560;2024-03-23T04:34:03;9.00;;;5.20;;
82952;SDS011;74888;40.196;44.560;2024-03-23T04:36:29;9.65;;;5.03;;
82952;SDS011;74888;40.196;44.560;2024-03-23T04:38:56;9.65;;;4.75;;
82952;SDS011;74888;40.196;44.560;2024-03-23T04:41:23;9.18;;;4.63;;
82952;SDS011;74888;40.196;44.560;2024-03-23T04:43:49;9.05;;;4.97;;
82952;SDS011;74888;40.196;44.560;2024-03-23T04:46:14;9.75;;;5.35;;
82952;SDS011;74888;40.196;44.560;2024-03-23T04:48:40;13.50;;;5.15;;
82952;SDS011;74888;40.196;44.560;2024-03-23T04:51:06;10.88;;;5.30;;
82952;SDS011;74888;40.196;44.560;2024-03-23T04:53:32;12.80;;;6.20;;
82952;SDS011;74888;40.196;44.560;2024-03-23T04:55:59;11.00;;;5.93;;
82952;SDS011;74888;40.196;44.560;2024-03-23T04:58:26;11.57;;;4.85;;
82952;SDS011;74888;40.196;44.560;2024-03-23T05:00:56;7.88;;;3.75;;
82952;SDS011;74888;40.196;44.560;2024-03-23T05:03:23;7.70;;;3.00;;
82952;SDS011;74888;40.196;44.560;2024-03-23T05:05:49;7.90;;;3.58;;
82952;SDS011;74888;40.196;44.560;2024-03-23T05:08:15;8.43;;;3.78;;
82952;SDS011;74888;40.196;44.560;2024-03-23T05:10:42;5.13;;;2.58;;
82952;SDS011;74888;40.196;44.560;2024-03-23T05:13:08;5.38;;;2.50;;
82952;SDS011;74888;40.196;44.560;2024-03-23T05:15:35;4.97;;;2.10;;
82952;SDS011;74888;40.196;44.560;2024-03-23T05:18:01;4.13;;;1.85;;
82952;SDS011;74888;40.196;44.560;2024-03-23T05:20:28;6.47;;;2.30;;
82952;SDS011;74888;40.196;44.560;2024-03-23T05:22:54;8.48;;;4.03;;
82952;SDS011;74888;40.196;44.560;2024-03-23T05:25:20;14.88;;;8.70;;
82952;SDS011;74888;40.196;44.560;2024-03-23T05:27:46;11.15;;;5.70;;
82952;SDS011;74888;40.196;44.560;2024-03-23T05:30:11;7.13;;;3.78;;
82952;SDS011;74888;40.196;44.560;2024-03-23T05:32:38;8.10;;;3.83;;
82952;SDS011;74888;40.196;44.560;2024-03-23T05:35:06;7.78;;;3.72;;
82952;SDS011;74888;40.196;44.560;2024-03-23T05:37:32;8.15;;;2.50;;
82952;SDS011;74888;40.196;44.560;2024-03-23T05:39:59;5.25;;;2.45;;
82952;SDS011;74888;40.196;44.560;2024-03-23T05:42:25;5.45;;;2.00;;
82952;SDS011;74888;40.196;44.560;2024-03-23T05:44:51;6.38;;;2.42;;
82952;SDS011;74888;40.196;44.560;2024-03-23T05:47:17;6.80;;;2.55;;
82952;SDS011;74888;40.196;44.560;2024-03-23T05:49:45;9.07;;;3.17;;
82952;SDS011;74888;40.196;44.560;2024-03-23T05:52:11;4.57;;;1.60;;
82952;SDS011;74888;40.196;44.560;2024-03-23T05:54:37;5.78;;;2.85;;
82952;SDS011;74888;40.196;44.560;2024-03-23T05:57:03;6.15;;;2.75;;
82952;SDS011;74888;40.196;44.560;2024-03-23T05:59:33;4.88;;;2.30;;
82952;SDS011;74888;40.196;44.560;2024-03-23T06:01:59;4.00;;;1.73;;
82952;SDS011;74888;40.196;44.560;2024-03-23T06:04:25;6.97;;;2.50;;
82952;SDS011;74888;40.196;44.560;2024-03-23T06:06:51;5.00;;;2.05;;
82952;SDS011;74888;40.196;44.560;2024-03-23T06:09:20;9.32;;;2.80;;
82952;SDS011;74888;40.196;44.560;2024-03-23T06:11:46;6.97;;;3.33;;
82952;SDS011;74888;40.196;44.560;2024-03-23T06:14:12;8.93;;;3.25;;
82952;SDS011;74888;40.196;44.560;2024-03-23T06:16:37;7.20;;;2.88;;
82952;SDS011;74888;40.196;44.560;2024-03-23T06:19:03;6.93;;;3.45;;
82952;SDS011;74888;40.196;44.560;2024-03-23T06:21:32;8.70;;;3.28;;
82952;SDS011;74888;40.196;44.560;2024-03-23T06:23:58;8.55;;;3.47;;
82952;SDS011;74888;40.196;44.560;2024-03-23T06:26:24;9.70;;;4.35;;
82952;SDS011;74888;40.196;44.560;2024-03-23T06:28:50;11.60;;;3.80;;
82952;SDS011;74888;40.196;44.560;2024-03-23T06:31:15;14.68;;;4.90;;
82952;SDS011;74888;40.196;44.560;2024-03-23T06:33:43;9.70;;;3.75;;
82952;SDS011;74888;40.196;44.560;2024-03-23T06:36:09;9.32;;;4.30;;
82952;SDS011;74888;40.196;44.560;2024-03-23T06:38:38;11.15;;;5.07;;
82952;SDS011;74888;40.196;44.560;2024-03-23T06:41:05;9.80;;;4.13;;
82952;SDS011;74888;40.196;44.560;2024-03-23T06:43:31;10.73;;;3.58;;
82952;SDS011;74888;40.196;44.560;2024-03-23T06:45:57;9.10;;;3.50;;
82952;SDS011;74888;40.196;44.560;2024-03-23T06:48:23;8.68;;;3.17;;
82952;SDS011;74888;40.196;44.560;2024-03-23T06:50:48;18.35;;;4.20;;
82952;SDS011;74888;40.196;44.560;2024-03-23T06:53:14;10.02;;;4.18;;
82952;SDS011;74888;40.196;44.560;2024-03-23T06:55:41;7.25;;;3.15;;
82952;SDS011;74888;40.196;44.560;2024-03-23T06:58:07;11.60;;;4.10;;
82952;SDS011;74888;40.196;44.560;2024-03-23T07:03:02;7.45;;;3.22;;
82952;SDS011;74888;40.196;44.560;2024-03-23T07:05:29;6.88;;;3.00;;
82952;SDS011;74888;40.196;44.560;2024-03-23T07:07:58;7.80;;;2.45;;
82952;SDS011;74888;40.196;44.560;2024-03-23T07:10:24;9.18;;;3.30;;
82952;SDS011;74888;40.196;44.560;2024-03-23T07:12:52;10.10;;;2.58;;
82952;SDS011;74888;40.196;44.560;2024-03-23T07:15:18;23.42;;;14.80;;
82952;SDS011;74888;40.196;44.560;2024-03-23T07:17:46;8.55;;;3.10;;
82952;SDS011;74888;40.196;44.560;2024-03-23T07:20:18;7.95;;;2.80;;
82952;SDS011;74888;40.196;44.560;2024-03-23T07:22:45;10.32;;;2.90;;
82952;SDS011;74888;40.196;44.560;2024-03-23T07:25:12;12.45;;;3.03;;
82952;SDS011;74888;40.196;44.560;2024-03-23T07:27:39;9.98;;;3.17;;
82952;SDS011;74888;40.196;44.560;2024-03-23T07:30:05;12.82;;;4.05;;
82952;SDS011;74888;40.196;44.560;2024-03-23T07:32:32;11.60;;;3.67;;
82952;SDS011;74888;40.196;44.560;2024-03-23T07:34:58;7.43;;;3.30;;
82952;SDS011;74888;40.196;44.560;2024-03-23T07:37:23;5.85;;;2.60;;
82952;SDS011;74888;40.196;44.560;2024-03-23T07:39:49;7.30;;;2.97;;
82952;SDS011;74888;40.196;44.560;2024-03-23T07:42:16;5.90;;;2.15;;
82952;SDS011;74888;40.196;44.560;2024-03-23T07:44:41;8.05;;;2.72;;
82952;SDS011;74888;40.196;44.560;2024-03-23T07:47:07;6.95;;;2.03;;
82952;SDS011;74888;40.196;44.560;2024-03-23T07:49:33;9.63;;;2.72;;
82952;SDS011;74888;40.196;44.560;2024-03-23T07:51:59;8.10;;;2.58;;
82952;SDS011;74888;40.196;44.560;2024-03-23T07:54:25;5.45;;;2.13;;
82952;SDS011;74888;40.196;44.560;2024-03-23T07:56:51;8.52;;;2.50;;
82952;SDS011;74888;40.196;44.560;2024-03-23T07:59:16;8.88;;;2.22;;
82952;SDS011;74888;40.196;44.560;2024-03-23T08:01:44;7.78;;;2.55;;
82952;SDS011;74888;40.196;44.560;2024-03-23T08:04:11;7.97;;;2.38;;
82952;SDS011;74888;40.196;44.560;2024-03-23T08:06:37;7.40;;;2.70;;
82952;SDS011;74888;40.196;44.560;2024-03-23T08:09:03;6.22;;;2.78;;
82952;SDS011;74888;40.196;44.560;2024-03-23T08:11:31;6.70;;;2.10;;
82952;SDS011;74888;40.196;44.560;2024-03-23T08:13:58;5.00;;;1.95;;
82952;SDS011;74888;40.196;44.560;2024-03-23T08:16:25;3.95;;;1.98;;
82952;SDS011;74888;40.196;44.560;2024-03-23T08:18:51;9.57;;;2.45;;
82952;SDS011;74888;40.196;44.560;2024-03-23T08:21:18;8.85;;;2.33;;
82952;SDS011;74888;40.196;44.560;2024-03-23T08:23:45;5.00;;;2.17;;
82952;SDS011;74888;40.196;44.560;2024-03-23T08:26:15;6.32;;;2.50;;
82952;SDS011;74888;40.196;44.560;2024-03-23T08:28:44;8.02;;;2.22;;
82952;SDS011;74888;40.196;44.560;2024-03-23T08:31:10;8.38;;;2.42;;
82952;SDS011;74888;40.196;44.560;2024-03-23T08:33:37;8.52;;;3.10;;
82952;SDS011;74888;40.196;44.560;2024-03-23T08:36:05;8.05;;;2.70;;
82952;SDS011;74888;40.196;44.560;2024-03-23T08:38:38;6.53;;;3.10;;
82952;SDS011;74888;40.196;44.560;2024-03-23T08:41:10;7.35;;;2.78;;
82952;SDS011;74888;40.196;44.560;2024-03-23T08:43:41;8.00;;;2.70;;
82952;SDS011;74888;40.196;44.560;2024-03-23T08:46:08;7.97;;;3.10;;
82952;SDS011;74888;40.196;44.560;2024-03-23T08:48:40;9.35;;;2.70;;
82952;SDS011;74888;40.196;44.560;2024-03-23T08:51:09;9.93;;;2.95;;
82952;SDS011;74888;40.196;44.560;2024-03-23T08:53:35;13.25;;;4.20;;
82952;SDS011;74888;40.196;44.560;2024-03-23T08:56:02;9.55;;;3.47;;
82952;SDS011;74888;40.196;44.560;2024-03-23T08:58:30;10.85;;;3.88;;
82952;SDS011;74888;40.196;44.560;2024-03-23T09:01:02;10.25;;;4.10;;
82952;SDS011;74888;40.196;44.560;2024-03-23T09:03:42;11.85;;;3.38;;
82952;SDS011;74888;40.196;44.560;2024-03-23T09:06:09;11.45;;;3.55;;
82952;SDS011;74888;40.196;44.560;2024-03-23T09:08:35;10.27;;;3.92;;
82952;SDS011;74888;40.196;44.560;2024-03-23T09:11:05;15.63;;;4.07;;
82952;SDS011;74888;40.196;44.560;2024-03-23T09:13:32;8.40;;;3.45;;
82952;SDS011;74888;40.196;44.560;2024-03-23T09:15:59;7.35;;;3.47;;
82952;SDS011;74888;40.196;44.560;2024-03-23T09:18:26;7.43;;;3.17;;
82952;SDS011;74888;40.196;44.560;2024-03-23T09:20:51;14.27;;;4.22;;
82952;SDS011;74888;40.196;44.560;2024-03-23T09:23:20;16.20;;;4.72;;
82952;SDS011;74888;40.196;44.560;2024-03-23T09:25:47;8.63;;;3.35;;
82952;SDS011;74888;40.196;44.560;2024-03-23T09:28:13;9.82;;;3.65;;
82952;SDS011;74888;40.196;44.560;2024-03-23T09:30:38;11.20;;;3.55;;
82952;SDS011;74888;40.196;44.560;2024-03-23T09:33:07;7.10;;;3.20;;
82952;SDS011;74888;40.196;44.560;2024-03-23T09:35:41;10.10;;;3.33;;
82952;SDS011;74888;40.196;44.560;2024-03-23T09:38:09;12.18;;;3.15;;
82952;SDS011;74888;40.196;44.560;2024-03-23T09:40:45;10.45;;;3.33;;
82952;SDS011;74888;40.196;44.560;2024-03-23T09:45:39;12.93;;;4.45;;
82952;SDS011;74888;40.196;44.560;2024-03-23T09:48:09;11.70;;;3.47;;
82952;SDS011;74888;40.196;44.560;2024-03-23T09:50:38;10.43;;;3.30;;
82952;SDS011;74888;40.196;44.560;2024-03-23T09:53:05;7.55;;;3.85;;
82952;SDS011;74888;40.196;44.560;2024-03-23T09:55:32;9.85;;;3.53;;
82952;SDS011;74888;40.196;44.560;2024-03-23T09:57:58;7.63;;;2.90;;
82952;SDS011;74888;40.196;44.560;2024-03-23T10:00:24;16.08;;;3.60;;
82952;SDS011;74888;40.196;44.560;2024-03-23T10:02:50;10.57;;;2.88;;
82952;SDS011;74888;40.196;44.560;2024-03-23T10:05:20;7.40;;;3.20;;
82952;SDS011;74888;40.196;44.560;2024-03-23T10:10:20;6.90;;;3.03;;
82952;SDS011;74888;40.196;44.560;2024-03-23T10:12:49;6.70;;;2.55;;
82952;SDS011;74888;40.196;44.560;2024-03-23T10:15:19;6.93;;;2.78;;
82952;SDS011;74888;40.196;44.560;2024-03-23T10:17:46;6.30;;;2.75;;
82952;SDS011;74888;40.196;44.560;2024-03-23T10:20:23;12.07;;;3.72;;
82952;SDS011;74888;40.196;44.560;2024-03-23T10:22:49;13.00;;;3.40;;
82952;SDS011;74888;40.196;44.560;2024-03-23T10:25:22;8.05;;;3.40;;
82952;SDS011;74888;40.196;44.560;2024-03-23T10:27:58;10.88;;;3.25;;
82952;SDS011;74888;40.196;44.560;2024-03-23T10:30:25;9.77;;;3.90;;
82952;SDS011;74888;40.196;44.560;2024-03-23T10:33:13;12.90;;;3.85;;
82952;SDS011;74888;40.196;44.560;2024-03-23T10:35:40;9.32;;;3.88;;
82952;SDS011;74888;40.196;44.560;2024-03-23T10:38:07;12.80;;;3.88;;
82952;SDS011;74888;40.196;44.560;2024-03-23T10:40:36;12.07;;;3.88;;
82952;SDS011;74888;40.196;44.560;2024-03-23T10:43:03;9.85;;;4.32;;
82952;SDS011;74888;40.196;44.560;2024-03-23T10:45:29;8.65;;;3.83;;
82952;SDS011;74888;40.196;44.560;2024-03-23T10:47:58;13.05;;;3.72;;
82952;SDS011;74888;40.196;44.560;2024-03-23T10:50:24;8.52;;;3.15;;
82952;SDS011;74888;40.196;44.560;2024-03-23T10:52:52;9.25;;;2.90;;
82952;SDS011;74888;40.196;44.560;2024-03-23T10:55:24;11.07;;;3.70;;
82952;SDS011;74888;40.196;44.560;2024-03-23T10:57:51;11.90;;;3.60;;
82952;SDS011;74888;40.196;44.560;2024-03-23T11:00:20;11.30;;;3.58;;
82952;SDS011;74888;40.196;44.560;2024-03-23T11:02:48;12.65;;;3.65;;
82952;SDS011;74888;40.196;44.560;2024-03-23T11:05:28;14.52;;;4.40;;
82952;SDS011;74888;40.196;44.560;2024-03-23T11:07:57;13.38;;;4.07;;
82952;SDS011;74888;40.196;44.560;2024-03-23T11:10:29;16.70;;;7.78;;
82952;SDS011;74888;40.196;44.560;2024-03-23T11:13:41;10.32;;;4.40;;
82952;SDS011;74888;40.196;44.560;2024-03-23T11:15:48;12.75;;;3.88;;
82952;SDS011;74888;40.196;44.560;2024-03-23T11:18:20;10.43;;;3.15;;
82952;SDS011;74888;40.196;44.560;2024-03-23T11:20:46;9.25;;;3.15;;
82952;SDS011;74888;40.196;44.560;2024-03-23T11:23:27;7.32;;;3.70;;
82952;SDS011;74888;40.196;44.560;2024-03-23T11:25:53;6.13;;;3.00;;
82952;SDS011;74888;40.196;44.560;2024-03-23T11:28:19;6.43;;;3.22;;
82952;SDS011;74888;40.196;44.560;2024-03-23T11:30:48;7.85;;;4.30;;
82952;SDS011;74888;40.196;44.560;2024-03-23T11:33:14;8.82;;;3.67;;
82952;SDS011;74888;40.196;44.560;2024-03-23T11:35:41;7.78;;;3.85;;
82952;SDS011;74888;40.196;44.560;2024-03-23T11:40:40;10.52;;;4.03;;
82952;SDS011;74888;40.196;44.560;2024-03-23T11:43:14;10.15;;;4.95;;
82952;SDS011;74888;40.196;44.560;2024-03-23T11:45:46;9.75;;;4.50;;
82952;SDS011;74888;40.196;44.560;2024-03-23T11:48:14;13.55;;;6.90;;
82952;SDS011;74888;40.196;44.560;2024-03-23T11:50:44;13.82;;;8.82;;
82952;SDS011;74888;40.196;44.560;2024-03-23T11:58:13;11.85;;;5.40;;
82952;SDS011;74888;40.196;44.560;2024-03-23T12:00:39;8.48;;;4.40;;
82952;SDS011;74888;40.196;44.560;2024-03-23T12:03:05;8.05;;;3.95;;
82952;SDS011;74888;40.196;44.560;2024-03-23T12:05:32;10.10;;;5.35;;
82952;SDS011;74888;40.196;44.560;2024-03-23T12:10:51;13.30;;;7.57;;
82952;SDS011;74888;40.196;44.560;2024-03-23T12:13:18;20.00;;;10.88;;
82952;SDS011;74888;40.196;44.560;2024-03-23T12:15:45;11.00;;;6.40;;
82952;SDS011;74888;40.196;44.560;2024-03-23T12:18:15;10.85;;;6.28;;
82952;SDS011;74888;40.196;44.560;2024-03-23T12:23:11;12.07;;;5.53;;
82952;SDS011;74888;40.196;44.560;2024-03-23T12:25:39;11.20;;;6.03;;
82952;SDS011;74888;40.196;44.560;2024-03-23T12:28:06;14.75;;;6.13;;
82952;SDS011;74888;40.196;44.560;2024-03-23T12:30:33;13.30;;;6.65;;
82952;SDS011;74888;40.196;44.560;2024-03-23T12:32:59;15.20;;;7.30;;
82952;SDS011;74888;40.196;44.560;2024-03-23T12:35:25;11.65;;;5.90;;
82952;SDS011;74888;40.196;44.560;2024-03-23T12:37:52;14.80;;;6.22;;
82952;SDS011;74888;40.196;44.560;2024-03-23T12:40:19;11.10;;;6.57;;
82952;SDS011;74888;40.196;44.560;2024-03-23T12:42:45;12.98;;;6.18;;
82952;SDS011;74888;40.196;44.560;2024-03-23T12:45:11;11.77;;;5.57;;
82952;SDS011;74888;40.196;44.560;2024-03-23T12:47:36;11.10;;;5.85;;
82952;SDS011;74888;40.196;44.560;2024-03-23T12:50:02;12.00;;;7.18;;
82952;SDS011;74888;40.196;44.560;2024-03-23T12:52:28;10.68;;;6.57;;
82952;SDS011;74888;40.196;44.560;2024-03-23T12:54:55;10.82;;;5.63;;
82952;SDS011;74888;40.196;44.560;2024-03-23T12:57:25;12.95;;;6.30;;
82952;SDS011;74888;40.196;44.560;2024-03-23T12:59:51;11.77;;;6.22;;
82952;SDS011;74888;40.196;44.560;2024-03-23T13:02:19;16.58;;;8.68;;
82952;SDS011;74888;40.196;44.560;2024-03-23T13:04:49;15.35;;;8.57;;
82952;SDS011;74888;40.196;44.560;2024-03-23T13:07:22;16.45;;;8.48;;
82952;SDS011;74888;40.196;44.560;2024-03-23T13:09:52;21.50;;;8.95;;
82952;SDS011;74888;40.196;44.560;2024-03-23T13:12:19;17.15;;;8.18;;
82952;SDS011;74888;40.196;44.560;2024-03-23T13:14:45;18.92;;;8.18;;
82952;SDS011;74888;40.196;44.560;2024-03-23T13:17:12;20.35;;;7.72;;
82952;SDS011;74888;40.196;44.560;2024-03-23T13:19:39;12.73;;;7.50;;
82952;SDS011;74888;40.196;44.560;2024-03-23T13:22:05;11.23;;;6.75;;
82952;SDS011;74888;40.196;44.560;2024-03-23T13:24:31;19.60;;;9.50;;
82952;SDS011;74888;40.196;44.560;2024-03-23T13:32:17;11.02;;;6.65;;
82952;SDS011;74888;40.196;44.560;2024-03-23T13:35:03;11.75;;;6.75;;
82952;SDS011;74888;40.196;44.560;2024-03-23T13:37:34;10.55;;;5.88;;
82952;SDS011;74888;40.196;44.560;2024-03-23T13:40:01;14.43;;;7.30;;
82952;SDS011;74888;40.196;44.560;2024-03-23T13:42:28;11.82;;;6.95;;
82952;SDS011;74888;40.196;44.560;2024-03-23T13:44:55;20.70;;;8.00;;
82952;SDS011;74888;40.196;44.560;2024-03-23T13:47:21;12.05;;;5.68;;
82952;SDS011;74888;40.196;44.560;2024-03-23T13:49:47;10.98;;;5.47;;
82952;SDS011;74888;40.196;44.560;2024-03-23T13:52:14;15.13;;;6.32;;
82952;SDS011;74888;40.196;44.560;2024-03-23T13:54:45;9.82;;;5.30;;
82952;SDS011;74888;40.196;44.560;2024-03-23T13:57:12;9.93;;;5.80;;
82952;SDS011;74888;40.196;44.560;2024-03-23T13:59:38;11.57;;;5.50;;
82952;SDS011;74888;40.196;44.560;2024-03-23T14:02:04;8.43;;;4.75;;
82952;SDS011;74888;40.196;44.560;2024-03-23T14:04:30;14.32;;;5.80;;
82952;SDS011;74888;40.196;44.560;2024-03-23T14:06:55;10.80;;;6.05;;
82952;SDS011;74888;40.196;44.560;2024-03-23T14:09:21;9.65;;;5.07;;
82952;SDS011;74888;40.196;44.560;2024-03-23T14:11:51;9.98;;;5.03;;
82952;SDS011;74888;40.196;44.560;2024-03-23T14:14:18;9.48;;;5.38;;
82952;SDS011;74888;40.196;44.560;2024-03-23T14:16:46;16.52;;;7.03;;
82952;SDS011;74888;40.196;44.560;2024-03-23T14:19:12;16.20;;;7.05;;
82952;SDS011;74888;40.196;44.560;2024-03-23T14:21:37;17.65;;;7.50;;
82952;SDS011;74888;40.196;44.560;2024-03-23T14:24:04;14.80;;;6.50;;
82952;SDS011;74888;40.196;44.560;2024-03-23T14:26:30;13.43;;;6.65;;
82952;SDS011;74888;40.196;44.560;2024-03-23T14:28:56;8.93;;;4.50;;
82952;SDS011;74888;40.196;44.560;2024-03-23T14:31:22;8.48;;;4.15;;
82952;SDS011;74888;40.196;44.560;2024-03-23T14:33:48;8.82;;;4.18;;
82952;SDS011;74888;40.196;44.560;2024-03-23T14:36:16;7.38;;;4.43;;
82952;SDS011;74888;40.196;44.560;2024-03-23T14:38:48;10.00;;;4.65;;
82952;SDS011;74888;40.196;44.560;2024-03-23T14:41:15;7.05;;;3.95;;
82952;SDS011;74888;40.196;44.560;2024-03-23T14:43:41;7.28;;;3.80;;
82952;SDS011;74888;40.196;44.560;2024-03-23T14:46:12;8.30;;;3.75;;
82952;SDS011;74888;40.196;44.560;2024-03-23T14:48:40;7.03;;;4.53;;
82952;SDS011;74888;40.196;44.560;2024-03-23T14:51:06;9.38;;;4.38;;
82952;SDS011;74888;40.196;44.560;2024-03-23T14:53:36;7.55;;;4.18;;
82952;SDS011;74888;40.196;44.560;2024-03-23T14:56:59;10.68;;;5.07;;
82952;SDS011;74888;40.196;44.560;2024-03-23T15:01:46;9.10;;;4.35;;
82952;SDS011;74888;40.196;44.560;2024-03-23T15:04:18;11.48;;;5.45;;
82952;SDS011;74888;40.196;44.560;2024-03-23T15:06:44;8.43;;;4.25;;
82952;SDS011;74888;40.196;44.560;2024-03-23T15:12:32;7.45;;;4.32;;
82952;SDS011;74888;40.196;44.560;2024-03-23T15:18:16;7.15;;;3.92;;
82952;SDS011;74888;40.196;44.560;2024-03-23T15:21:11;9.13;;;4.40;;
82952;SDS011;74888;40.196;44.560;2024-03-23T15:23:37;9.98;;;4.90;;
82952;SDS011;74888;40.196;44.560;2024-03-23T15:26:03;9.02;;;5.28;;
82952;SDS011;74888;40.196;44.560;2024-03-23T15:28:33;10.38;;;5.57;;
82952;SDS011;74888;40.196;44.560;2024-03-23T15:31:25;12.15;;;5.65;;
82952;SDS011;74888;40.196;44.560;2024-03-23T15:34:02;10.98;;;6.32;;
82952;SDS011;74888;40.196;44.560;2024-03-23T15:36:29;10.10;;;5.10;;
82952;SDS011;74888;40.196;44.560;2024-03-23T15:45:44;9.63;;;4.97;;
82952;SDS011;74888;40.196;44.560;2024-03-23T15:48:51;10.35;;;5.38;;
82952;SDS011;74888;40.196;44.560;2024-03-23T15:51:45;9.93;;;4.97;;
82952;SDS011;74888;40.196;44.560;2024-03-23T15:54:32;9.13;;;4.90;;
82952;SDS011;74888;40.196;44.560;2024-03-23T15:56:59;10.25;;;4.68;;
82952;SDS011;74888;40.196;44.560;2024-03-23T15:59:28;10.75;;;5.28;;
82952;SDS011;74888;40.196;44.560;2024-03-23T16:01:54;9.32;;;4.85;;
82952;SDS011;74888;40.196;44.560;2024-03-23T16:04:23;9.57;;;5.35;;
82952;SDS011;74888;40.196;44.560;2024-03-23T16:07:02;11.23;;;6.00;;
82952;SDS011;74888;40.196;44.560;2024-03-23T16:09:28;11.90;;;6.30;;
82952;SDS011;74888;40.196;44.560;2024-03-23T16:11:59;10.60;;;5.90;;
82952;SDS011;74888;40.196;44.560;2024-03-23T16:14:25;12.02;;;6.45;;